createdAt,value
2022-10-30T00:00:52.943Z,7.57
2022-10-30T00:03:21.404Z,7.17
2022-10-30T00:05:51.715Z,8.33
2022-10-30T00:08:21.730Z,8.10
2022-10-30T00:10:51.558Z,7.03
2022-10-30T00:13:20.840Z,7.10
2022-10-30T00:15:51.042Z,6.83
2022-10-30T00:18:20.881Z,6.77
2022-10-30T00:20:49.692Z,7.43
2022-10-30T00:23:18.341Z,7.70
2022-10-30T00:25:46.816Z,7.40
2022-10-30T00:28:16.596Z,6.93
2022-10-30T00:30:45.438Z,7.47
2022-10-30T00:33:13.899Z,7.50
2022-10-30T00:35:49.526Z,7.57
2022-10-30T00:38:18.068Z,7.90
2022-10-30T00:40:46.598Z,7.37
2022-10-30T00:43:34.260Z,7.83
2022-10-30T00:46:06.644Z,7.87
2022-10-30T00:48:35.744Z,7.73
2022-10-30T00:51:06.561Z,7.60
2022-10-30T00:53:35.148Z,7.17
2022-10-30T00:56:07.372Z,7.33
2022-10-30T00:58:39.997Z,6.70
2022-10-30T01:01:12.177Z,6.73
2022-10-30T01:03:41.531Z,7.13
2022-10-30T01:06:12.282Z,7.07
2022-10-30T01:08:41.075Z,7.63
2022-10-30T01:11:10.600Z,6.47
2022-10-30T01:13:41.128Z,7.57
2022-10-30T01:16:32.637Z,7.20
2022-10-30T01:19:13.494Z,7.50
2022-10-30T01:21:51.368Z,7.53
2022-10-30T01:24:32.397Z,6.87
2022-10-30T01:27:13.779Z,6.67
2022-10-30T01:29:52.807Z,7.33
2022-10-30T01:32:37.391Z,7.13
2022-10-30T01:35:10.765Z,6.57
2022-10-30T01:37:48.484Z,6.13
2022-10-30T01:40:19.065Z,7.03
2022-10-30T01:42:50.712Z,7.00
2022-10-30T01:45:28.151Z,6.83
2022-10-30T01:48:07.178Z,6.33
2022-10-30T01:50:48.004Z,6.03
2022-10-30T01:53:26.173Z,7.10
2022-10-30T01:55:58.979Z,8.23
2022-10-30T01:58:31.160Z,8.93
2022-10-30T02:01:01.903Z,6.97
2022-10-30T02:03:32.052Z,7.03
2022-10-30T02:06:00.693Z,7.23
2022-10-30T02:08:29.644Z,7.10
2022-10-30T02:10:58.568Z,7.00
2022-10-30T02:13:54.574Z,7.30
2022-10-30T02:16:24.604Z,6.90
2022-10-30T02:18:53.200Z,7.00
2022-10-30T02:21:23.265Z,6.53
2022-10-30T02:23:52.126Z,6.97
2022-10-30T02:26:20.879Z,7.90
2022-10-30T02:28:49.362Z,8.13
2022-10-30T02:31:19.917Z,6.77
2022-10-30T02:33:48.466Z,7.67
2022-10-30T02:36:16.999Z,8.40
2022-10-30T02:38:46.843Z,11.00
2022-10-30T02:41:15.865Z,12.50
2022-10-30T02:43:44.526Z,12.00
2022-10-30T02:46:13.227Z,11.10
2022-10-30T02:48:41.798Z,9.80
2022-10-30T02:51:10.528Z,8.40
2022-10-30T02:53:40.573Z,7.43
2022-10-30T02:56:13.819Z,6.43
2022-10-30T02:58:43.406Z,6.83
2022-10-30T03:01:13.734Z,6.47
2022-10-30T03:03:43.767Z,6.53
2022-10-30T03:06:15.825Z,6.47
2022-10-30T03:08:45.237Z,7.07
2022-10-30T03:11:17.562Z,6.40
2022-10-30T03:13:47.360Z,6.90
2022-10-30T03:16:18.155Z,7.07
2022-10-30T03:18:46.802Z,6.50
2022-10-30T03:21:17.059Z,6.97
2022-10-30T03:23:46.452Z,6.63
2022-10-30T03:26:16.354Z,6.63
2022-10-30T03:28:53.563Z,7.07
2022-10-30T03:31:22.780Z,6.83
2022-10-30T03:34:08.454Z,6.20
2022-10-30T03:36:37.001Z,6.07
2022-10-30T03:39:05.906Z,7.20
2022-10-30T03:41:36.270Z,6.57
2022-10-30T03:44:04.988Z,6.67
2022-10-30T03:46:33.413Z,6.50
2022-10-30T03:49:15.927Z,6.17
2022-10-30T03:51:44.368Z,6.57
2022-10-30T03:54:12.864Z,6.37
2022-10-30T03:56:42.730Z,5.47
2022-10-30T03:59:15.206Z,6.17
2022-10-30T04:01:46.022Z,6.53
2022-10-30T04:04:14.836Z,6.30
2022-10-30T04:06:43.322Z,6.27
2022-10-30T04:09:12.055Z,6.43
2022-10-30T04:11:45.277Z,6.73
2022-10-30T04:14:13.838Z,8.20
2022-10-30T04:16:42.376Z,7.30
2022-10-30T04:19:10.960Z,7.37
2022-10-30T04:21:39.583Z,8.10
2022-10-30T04:24:08.695Z,7.77
2022-10-30T04:26:37.815Z,7.90
2022-10-30T04:29:07.827Z,8.47
2022-10-30T04:31:36.508Z,8.53
2022-10-30T04:34:05.042Z,7.83
2022-10-30T04:36:34.089Z,7.50
2022-10-30T04:39:03.152Z,7.57
2022-10-30T04:41:32.356Z,8.70
2022-10-30T04:44:07.156Z,9.80
2022-10-30T04:46:35.635Z,9.83
2022-10-30T04:49:09.733Z,9.10
2022-10-30T04:51:38.180Z,7.17
2022-10-30T04:54:08.494Z,7.57
2022-10-30T04:56:38.957Z,8.33
2022-10-30T04:59:09.033Z,7.37
2022-10-30T05:01:37.740Z,6.63
2022-10-30T05:04:06.409Z,7.00
2022-10-30T05:06:35.246Z,7.43
2022-10-30T05:09:03.918Z,7.10
2022-10-30T05:11:36.632Z,7.03
2022-10-30T05:14:05.178Z,7.73
2022-10-30T05:16:35.070Z,6.87
2022-10-30T05:19:05.705Z,7.07
2022-10-30T05:21:36.115Z,7.33
2022-10-30T05:24:06.858Z,7.37
2022-10-30T05:26:44.467Z,9.17
2022-10-30T05:29:14.161Z,8.40
2022-10-30T05:31:44.305Z,9.90
2022-10-30T05:34:18.502Z,8.87
2022-10-30T05:36:50.391Z,8.57
2022-10-30T05:39:19.961Z,9.33
2022-10-30T05:41:51.252Z,8.10
2022-10-30T05:44:40.508Z,9.33
2022-10-30T05:47:13.403Z,8.80
2022-10-30T05:49:46.692Z,8.23
2022-10-30T05:52:20.196Z,7.53
2022-10-30T05:54:51.146Z,8.97
2022-10-30T05:57:39.901Z,8.47
2022-10-30T06:00:09.804Z,8.30
2022-10-30T06:02:45.337Z,7.80
2022-10-30T06:05:16.068Z,8.90
2022-10-30T06:07:44.700Z,8.67
2022-10-30T06:10:14.294Z,7.70
2022-10-30T06:12:54.025Z,7.33
2022-10-30T06:15:35.023Z,8.10
2022-10-30T06:18:05.511Z,8.10
2022-10-30T06:20:55.824Z,9.13
2022-10-30T06:23:49.310Z,8.13
2022-10-30T06:26:34.369Z,9.43
2022-10-30T06:29:08.456Z,8.87
2022-10-30T06:31:36.941Z,8.73
2022-10-30T06:34:06.885Z,8.37
2022-10-30T06:36:38.166Z,9.13
2022-10-30T06:39:07.429Z,9.10
2022-10-30T06:41:45.593Z,8.97
2022-10-30T06:44:32.546Z,9.77
2022-10-30T06:47:01.967Z,9.50
2022-10-30T06:49:31.904Z,10.70
2022-10-30T06:52:00.561Z,9.70
2022-10-30T06:54:29.533Z,9.50
2022-10-30T06:57:03.535Z,9.47
2022-10-30T06:59:52.233Z,9.53
2022-10-30T07:02:27.838Z,10.13
2022-10-30T07:05:00.855Z,8.70
2022-10-30T07:07:30.003Z,8.63
2022-10-30T07:09:58.698Z,9.00
2022-10-30T07:12:52.349Z,9.50
2022-10-30T07:15:36.083Z,10.67
2022-10-30T07:18:13.790Z,11.87
2022-10-30T07:20:44.092Z,10.93
2022-10-30T07:23:12.610Z,16.50
2022-10-30T07:25:41.148Z,6.93
2022-10-30T07:28:32.481Z,9.00
2022-10-30T07:31:34.761Z,7.20
2022-10-30T07:34:28.157Z,6.63
2022-10-30T07:37:16.536Z,6.37
2022-10-30T07:39:50.926Z,6.40
2022-10-30T07:42:23.187Z,5.33
2022-10-30T07:45:30.221Z,6.50
2022-10-30T07:48:19.048Z,6.30
2022-10-30T07:50:55.645Z,5.97
2022-10-30T07:53:25.556Z,5.70
2022-10-30T07:55:54.330Z,6.40
2022-10-30T07:58:45.390Z,6.00
2022-10-30T08:01:20.151Z,6.00
2022-10-30T08:03:48.922Z,5.80
2022-10-30T08:06:28.577Z,6.10
2022-10-30T08:08:59.140Z,6.30
2022-10-30T08:11:31.336Z,5.33
2022-10-30T08:14:01.064Z,5.80
2022-10-30T08:16:29.551Z,5.03
2022-10-30T08:18:59.291Z,5.37
2022-10-30T08:21:27.782Z,5.07
2022-10-30T08:24:09.358Z,4.77
2022-10-30T08:26:39.226Z,4.87
2022-10-30T08:29:07.962Z,4.90
2022-10-30T08:31:36.495Z,4.27
2022-10-30T08:34:05.483Z,5.13
2022-10-30T08:36:49.930Z,4.70
2022-10-30T08:39:20.310Z,4.80
2022-10-30T08:42:09.094Z,3.90
2022-10-30T08:44:43.557Z,4.30
2022-10-30T08:47:52.072Z,4.60
2022-10-30T08:52:53.882Z,4.33
2022-10-30T08:55:24.735Z,4.70
2022-10-30T08:57:54.265Z,4.00
2022-10-30T09:00:23.324Z,4.30
2022-10-30T09:03:10.927Z,4.27
2022-10-30T09:06:17.461Z,4.97
2022-10-30T09:09:24.363Z,4.63
2022-10-30T09:11:58.711Z,4.23
2022-10-30T09:14:27.628Z,4.77
2022-10-30T09:16:57.643Z,4.30
2022-10-30T09:19:28.547Z,4.90
2022-10-30T09:21:59.252Z,4.90
2022-10-30T09:24:27.875Z,4.43
2022-10-30T09:26:57.740Z,4.37
2022-10-30T09:29:27.455Z,4.67
2022-10-30T09:32:01.667Z,5.00
2022-10-30T09:34:32.516Z,4.70
2022-10-30T09:37:15.782Z,5.17
2022-10-30T09:39:47.439Z,4.67
2022-10-30T09:42:51.276Z,4.70
2022-10-30T09:45:46.676Z,4.73
2022-10-30T09:48:32.629Z,5.60
2022-10-30T09:51:26.264Z,5.57
2022-10-30T09:54:05.397Z,5.60
2022-10-30T09:56:45.187Z,5.83
2022-10-30T09:59:24.574Z,5.73
2022-10-30T10:01:57.278Z,6.03
2022-10-30T10:04:30.107Z,5.90
2022-10-30T10:07:20.106Z,6.33
2022-10-30T10:10:01.593Z,5.93
2022-10-30T10:13:01.093Z,6.13
2022-10-30T10:15:38.973Z,6.10
2022-10-30T10:18:13.881Z,6.47
2022-10-30T10:20:43.798Z,5.90
2022-10-30T10:23:18.660Z,5.93
2022-10-30T10:25:53.809Z,6.63
2022-10-30T10:28:36.972Z,6.73
2022-10-30T10:31:11.596Z,6.13
2022-10-30T10:33:52.451Z,6.27
2022-10-30T10:36:29.750Z,6.60
2022-10-30T10:39:07.462Z,5.77
2022-10-30T10:41:53.517Z,6.10
2022-10-30T10:44:34.801Z,6.60
2022-10-30T10:47:11.784Z,6.07
2022-10-30T10:49:54.201Z,6.00
2022-10-30T10:52:24.986Z,6.47
2022-10-30T10:54:55.263Z,6.70
2022-10-30T10:57:27.877Z,6.77
2022-10-30T10:59:59.367Z,6.63
2022-10-30T11:02:34.302Z,6.67
2022-10-30T11:05:08.545Z,6.73
2022-10-30T11:07:42.841Z,6.80
2022-10-30T11:10:14.637Z,6.70
2022-10-30T11:12:44.469Z,6.53
2022-10-30T11:15:23.574Z,6.50
2022-10-30T11:17:57.269Z,6.10
2022-10-30T11:20:31.092Z,6.37
2022-10-30T11:22:59.856Z,6.43
2022-10-30T11:25:35.675Z,6.97
2022-10-30T11:28:07.484Z,6.37
2022-10-30T11:30:36.182Z,6.97
2022-10-30T11:33:30.548Z,6.30
2022-10-30T11:36:15.455Z,6.47
2022-10-30T11:38:44.653Z,6.60
2022-10-30T11:41:13.692Z,6.40
2022-10-30T11:43:43.027Z,6.40
2022-10-30T11:46:13.913Z,6.67
2022-10-30T11:48:45.692Z,6.23
2022-10-30T11:51:14.732Z,6.70
2022-10-30T11:53:48.411Z,6.60
2022-10-30T11:56:18.556Z,6.57
2022-10-30T11:58:50.518Z,6.57
2022-10-30T12:01:23.676Z,6.83
2022-10-30T12:03:55.230Z,6.37
2022-10-30T12:06:29.160Z,6.43
2022-10-30T12:09:02.208Z,6.20
2022-10-30T12:11:32.674Z,6.40
2022-10-30T12:14:02.052Z,6.63
2022-10-30T12:16:31.007Z,6.87
2022-10-30T12:19:03.381Z,6.60
2022-10-30T12:21:37.874Z,7.27
2022-10-30T12:24:09.482Z,7.23
2022-10-30T12:26:38.822Z,6.30
2022-10-30T12:29:09.698Z,6.73
2022-10-30T12:31:41.909Z,5.77
2022-10-30T12:34:30.297Z,6.30
2022-10-30T12:37:06.074Z,6.60
2022-10-30T12:39:46.233Z,6.20
2022-10-30T12:42:16.410Z,5.90
2022-10-30T12:44:47.963Z,6.57
2022-10-30T12:47:22.066Z,5.60
2022-10-30T12:49:53.433Z,6.17
2022-10-30T12:52:27.483Z,6.37
2022-10-30T12:54:59.995Z,5.53
2022-10-30T12:57:29.999Z,5.57
2022-10-30T13:00:03.844Z,6.57
2022-10-30T13:02:49.059Z,5.83
2022-10-30T13:05:31.448Z,5.80
2022-10-30T13:08:08.239Z,6.30
2022-10-30T13:10:41.534Z,6.60
2022-10-30T13:13:14.105Z,6.10
2022-10-30T13:15:46.628Z,5.53
2022-10-30T13:18:19.263Z,5.93
2022-10-30T13:20:59.870Z,6.80
2022-10-30T13:23:33.140Z,7.47
2022-10-30T13:26:10.506Z,5.93
2022-10-30T13:28:43.477Z,6.63
2022-10-30T13:31:18.954Z,6.43
2022-10-30T13:33:54.275Z,5.87
2022-10-30T13:36:31.195Z,5.53
2022-10-30T13:39:01.987Z,6.03
2022-10-30T13:41:36.871Z,6.13
2022-10-30T13:44:16.183Z,6.87
2022-10-30T13:46:57.297Z,6.97
2022-10-30T13:49:40.558Z,7.03
2022-10-30T13:52:15.572Z,6.67
2022-10-30T13:54:47.422Z,6.40
2022-10-30T13:57:22.667Z,5.90
2022-10-30T14:00:00.022Z,6.40
2022-10-30T14:03:00.010Z,6.30
2022-10-30T14:05:32.673Z,6.40
2022-10-30T14:08:11.631Z,6.83
2022-10-30T14:10:46.409Z,7.20
2022-10-30T14:13:27.919Z,6.80
2022-10-30T14:15:58.989Z,6.17
2022-10-30T14:18:44.736Z,6.73
2022-10-30T14:21:36.506Z,7.07
2022-10-30T14:24:13.155Z,7.10
2022-10-30T14:26:48.507Z,6.73
2022-10-30T14:29:45.573Z,6.27
2022-10-30T14:32:50.232Z,6.83
2022-10-30T14:35:36.507Z,6.27
2022-10-30T14:38:31.904Z,6.27
2022-10-30T14:41:24.360Z,6.90
2022-10-30T14:44:16.795Z,6.60
2022-10-30T14:46:59.081Z,6.63
2022-10-30T14:49:41.518Z,7.23
2022-10-30T14:52:29.752Z,6.97
2022-10-30T14:55:06.486Z,8.30
2022-10-30T14:57:48.463Z,6.53
2022-10-30T15:00:39.717Z,6.87
2022-10-30T15:03:34.371Z,7.60
2022-10-30T15:06:07.600Z,7.27
2022-10-30T15:08:57.468Z,6.87
2022-10-30T15:11:32.031Z,7.33
2022-10-30T15:14:03.336Z,7.40
2022-10-30T15:16:32.303Z,6.87
2022-10-30T15:19:02.831Z,7.20
2022-10-30T15:21:34.103Z,7.87
2022-10-30T15:24:03.152Z,7.87
2022-10-30T15:26:36.690Z,7.97
2022-10-30T15:29:07.404Z,7.17
2022-10-30T15:31:36.134Z,7.77
2022-10-30T15:34:21.218Z,7.57
2022-10-30T15:36:49.681Z,7.20
2022-10-30T15:39:19.840Z,7.70
2022-10-30T15:41:50.081Z,8.80
2022-10-30T15:44:23.718Z,8.67
2022-10-30T15:46:54.559Z,8.17
2022-10-30T15:49:31.037Z,9.23
2022-10-30T15:52:00.629Z,8.27
2022-10-30T15:54:30.546Z,9.17
2022-10-30T15:59:54.342Z,9.17
2022-10-30T16:02:24.781Z,9.93
2022-10-30T16:04:53.526Z,11.00
2022-10-30T16:07:23.840Z,9.90
2022-10-30T16:09:56.675Z,10.90
2022-10-30T16:12:26.593Z,10.00
2022-10-30T16:14:56.791Z,9.80
2022-10-30T16:17:25.831Z,10.63
2022-10-30T16:19:56.219Z,11.57
2022-10-30T16:22:27.405Z,10.20
2022-10-30T16:24:57.099Z,18.73
2022-10-30T16:27:27.409Z,15.90
2022-10-30T16:30:00.204Z,15.00
2022-10-30T16:32:31.714Z,17.10
2022-10-30T16:35:02.087Z,16.33
2022-10-30T16:37:35.354Z,15.33
2022-10-30T16:40:06.762Z,14.13
2022-10-30T16:42:35.361Z,13.73
2022-10-30T16:45:41.556Z,12.87
2022-10-30T16:50:51.434Z,13.37
2022-10-30T16:53:21.510Z,12.57
2022-10-30T16:55:50.239Z,13.23
2022-10-30T16:58:20.040Z,13.03
2022-10-30T17:00:54.421Z,12.63
2022-10-30T17:03:26.458Z,12.73
2022-10-30T17:05:59.098Z,12.00
2022-10-30T17:08:36.304Z,14.17
2022-10-30T17:11:07.049Z,13.90
2022-10-30T17:13:37.223Z,14.83
2022-10-30T17:16:25.880Z,14.30
2022-10-30T17:18:55.487Z,14.97
2022-10-30T17:21:26.313Z,13.50
2022-10-30T17:23:57.987Z,13.40
2022-10-30T17:26:27.251Z,13.47
2022-10-30T17:28:55.784Z,13.13
2022-10-30T17:31:29.694Z,13.00
2022-10-30T17:34:14.732Z,13.43
2022-10-30T17:36:45.114Z,14.90
2022-10-30T17:39:13.689Z,14.10
2022-10-30T17:41:42.439Z,12.87
2022-10-30T17:44:17.852Z,13.93
2022-10-30T17:46:48.267Z,14.30
2022-10-30T17:49:25.854Z,13.77
2022-10-30T17:51:54.666Z,13.43
2022-10-30T17:54:23.270Z,13.90
2022-10-30T17:56:52.694Z,13.53
2022-10-30T17:59:21.821Z,13.23
2022-10-30T18:01:51.800Z,12.97
2022-10-30T18:04:21.588Z,13.77
2022-10-30T18:06:50.696Z,15.23
2022-10-30T18:09:19.222Z,15.87
2022-10-30T18:11:47.711Z,16.10
2022-10-30T18:14:16.313Z,15.17
2022-10-30T18:16:44.857Z,14.90
2022-10-30T18:19:14.690Z,15.07
2022-10-30T18:21:45.232Z,13.10
2022-10-30T18:24:14.207Z,14.33
2022-10-30T18:26:42.895Z,13.67
2022-10-30T18:29:12.121Z,13.80
2022-10-30T18:31:41.401Z,12.70
2022-10-30T18:34:16.547Z,12.80
2022-10-30T18:36:45.102Z,13.00
2022-10-30T18:39:13.943Z,13.17
2022-10-30T18:41:43.814Z,13.50
2022-10-30T18:44:15.580Z,17.57
2022-10-30T18:46:44.400Z,18.77
2022-10-30T18:49:14.580Z,19.67
2022-10-30T18:51:43.032Z,18.70
2022-10-30T18:54:15.552Z,19.57
2022-10-30T18:56:44.089Z,19.60
2022-10-30T18:59:12.506Z,19.80
2022-10-30T19:01:41.351Z,19.37
2022-10-30T19:04:10.568Z,17.47
2022-10-30T19:06:41.630Z,16.87
2022-10-30T19:09:10.059Z,15.30
2022-10-30T19:11:43.308Z,15.57
2022-10-30T19:14:14.053Z,15.80
2022-10-30T19:16:43.191Z,16.53
2022-10-30T19:19:11.651Z,15.43
2022-10-30T19:21:41.574Z,17.50
2022-10-30T19:24:13.237Z,15.23
2022-10-30T19:26:42.104Z,14.73
2022-10-30T19:29:10.558Z,15.80
2022-10-30T19:31:40.052Z,15.40
2022-10-30T19:34:09.587Z,16.07
2022-10-30T19:36:38.735Z,16.17
2022-10-30T19:39:14.322Z,16.27
2022-10-30T19:41:43.555Z,16.27
2022-10-30T19:44:12.156Z,16.13
2022-10-30T19:46:40.650Z,14.63
2022-10-30T19:49:17.871Z,15.40
2022-10-30T19:51:48.401Z,14.07
2022-10-30T19:54:18.317Z,15.27
2022-10-30T19:56:46.759Z,13.67
2022-10-30T19:59:16.261Z,12.93
2022-10-30T20:01:45.222Z,11.77
2022-10-30T20:04:14.199Z,12.60
2022-10-30T20:06:42.874Z,12.13
2022-10-30T20:09:12.028Z,10.87
2022-10-30T20:11:41.927Z,11.60
2022-10-30T20:14:10.424Z,12.40
2022-10-30T20:16:38.887Z,12.13
2022-10-30T20:19:26.292Z,12.40
2022-10-30T20:21:55.561Z,12.60
2022-10-30T20:24:25.132Z,11.83
2022-10-30T20:26:56.999Z,11.70
2022-10-30T20:29:25.572Z,13.10
2022-10-30T20:31:54.141Z,15.07
2022-10-30T20:34:22.674Z,15.20
2022-10-30T20:36:51.210Z,18.33
2022-10-30T20:39:19.724Z,19.17
2022-10-30T20:41:48.434Z,19.30
2022-10-30T20:44:18.502Z,19.87
2022-10-30T20:46:47.355Z,20.27
2022-10-30T20:49:18.354Z,19.40
2022-10-30T20:51:47.979Z,18.77
2022-10-30T20:54:16.755Z,16.73
2022-10-30T20:56:45.327Z,16.83
2022-10-30T20:59:14.028Z,18.37
2022-10-30T21:01:44.096Z,18.07
2022-10-30T21:04:13.547Z,15.13
2022-10-30T21:06:42.425Z,12.93
2022-10-30T21:09:11.705Z,13.20
2022-10-30T21:11:40.384Z,12.33
2022-10-30T21:14:09.008Z,13.43
2022-10-30T21:16:37.721Z,13.23
2022-10-30T21:19:07.789Z,12.43
2022-10-30T21:21:36.423Z,14.17
2022-10-30T21:24:05.372Z,13.93
2022-10-30T21:26:35.037Z,12.93
2022-10-30T21:29:03.679Z,13.40
2022-10-30T21:31:32.756Z,12.63
2022-10-30T21:34:01.426Z,13.87
2022-10-30T21:36:31.480Z,14.23
2022-10-30T21:39:00.309Z,13.93
2022-10-30T21:41:28.838Z,13.20
2022-10-30T21:43:58.392Z,13.33
2022-10-30T21:46:29.004Z,12.63
2022-10-30T21:48:57.840Z,13.57
2022-10-30T21:51:27.553Z,16.20
2022-10-30T21:53:57.749Z,14.17
2022-10-30T21:56:27.923Z,14.73
2022-10-30T21:58:57.038Z,12.20
2022-10-30T22:01:28.282Z,12.90
2022-10-30T22:03:57.254Z,13.33
2022-10-30T22:06:26.487Z,13.47
2022-10-30T22:08:57.780Z,13.53
2022-10-30T22:11:28.413Z,11.50
2022-10-30T22:13:58.286Z,12.27
2022-10-30T22:16:28.532Z,11.43
2022-10-30T22:18:57.744Z,11.23
2022-10-30T22:21:28.290Z,11.57
2022-10-30T22:24:00.148Z,11.77
2022-10-30T22:26:29.011Z,11.50
2022-10-30T22:28:59.035Z,12.47
2022-10-30T22:31:29.158Z,13.00
2022-10-30T22:33:57.810Z,13.57
2022-10-30T22:36:27.559Z,14.03
2022-10-30T22:38:59.560Z,13.77
2022-10-30T22:41:32.835Z,14.83
2022-10-30T22:44:07.826Z,15.20
2022-10-30T22:46:37.349Z,13.93
2022-10-30T22:49:05.983Z,15.10
2022-10-30T22:51:36.413Z,14.23
2022-10-30T22:54:08.420Z,14.60
2022-10-30T22:56:37.745Z,13.10
2022-10-30T22:59:09.037Z,12.70
2022-10-30T23:01:38.497Z,13.63
2022-10-30T23:04:08.107Z,12.90
2022-10-30T23:06:37.261Z,14.63
2022-10-30T23:09:09.154Z,13.37
2022-10-30T23:11:37.567Z,14.60
2022-10-30T23:14:06.036Z,14.57
2022-10-30T23:16:34.538Z,13.57
2022-10-30T23:19:03.167Z,14.83
2022-10-30T23:21:32.446Z,13.93
2022-10-30T23:24:02.961Z,13.90
2022-10-30T23:26:34.607Z,14.53
2022-10-30T23:29:03.975Z,15.70
2022-10-30T23:31:34.417Z,14.60
2022-10-30T23:34:04.927Z,14.67
2022-10-30T23:36:33.628Z,14.17
2022-10-30T23:39:03.164Z,15.33
2022-10-30T23:41:34.344Z,15.57
2022-10-30T23:44:05.000Z,14.07
2022-10-30T23:46:33.632Z,14.60
2022-10-30T23:49:02.486Z,15.03
2022-10-30T23:51:31.264Z,14.53
2022-10-30T23:53:59.762Z,14.80
2022-10-30T23:56:29.400Z,14.70
2022-10-30T23:58:59.369Z,13.97
